Time;durP1;ratioP1;P1;durP2;ratioP2;P2;SDS_P1;SDS_P2;PMS_P1;PMS_P2;Temp;Humidity;BMP_temperature;BMP_pressure;BME280_temperature;BME280_humidity;BME280_pressure;Samples;Min_cycle;Max_cycle;Signal;HPM_P1;HPM_P2
2021/10/31 00:02:58;;;;;;;13.20;8.15;;;;;;;12.09;86.27;100441.66;10217713;28;20092;-75
2021/10/31 00:07:55;;;;;;;13.35;8.63;;;;;;;12.09;86.05;100444.41;10223072;28;20042;-73
2021/10/31 00:12:51;;;;;;;14.77;9.35;;;;;;;12.10;85.87;100448.75;10218819;28;20123;-75
2021/10/31 00:17:48;;;;;;;13.48;8.63;;;;;;;12.13;85.98;100445.34;10206440;28;20441;-74
2021/10/31 00:22:47;;;;;;;13.32;8.70;;;;;;;12.13;86.24;100448.09;10205552;28;20049;-73
2021/10/31 00:27:43;;;;;;;14.70;9.80;;;;;;;12.13;86.00;100456.31;10218641;28;20065;-75
2021/10/31 00:32:40;;;;;;;13.85;9.98;;;;;;;12.13;86.33;100464.53;10203101;28;20656;-73
2021/10/31 00:37:36;;;;;;;14.88;9.38;;;;;;;12.09;87.36;100460.84;10208581;28;20081;-75
2021/10/31 00:42:33;;;;;;;14.63;10.05;;;;;;;12.09;87.59;100469.06;10209052;28;20156;-75
2021/10/31 00:47:30;;;;;;;16.23;10.40;;;;;;;12.10;87.68;100476.16;10203340;28;20483;-75
2021/10/31 00:52:27;;;;;;;14.07;9.43;;;;;;;12.06;88.51;100481.50;10213651;28;20061;-73
2021/10/31 00:57:25;;;;;;;15.05;10.82;;;;;;;12.09;88.79;100485.50;10194723;28;20045;-74
2021/10/31 01:02:21;;;;;;;16.63;11.05;;;;;;;12.11;88.66;100480.50;10211784;28;20056;-74
2021/10/31 01:07:41;;;;;;;15.65;11.30;;;;;;;12.07;88.67;100482.28;10196485;28;20153;-74
2021/10/31 01:12:47;;;;;;;15.38;11.40;;;;;;;12.00;89.04;100480.91;10196103;28;20046;-73
2021/10/31 01:18:02;;;;;;;17.35;12.20;;;;;;;11.99;89.32;100476.53;10198444;28;20050;-74
2021/10/31 01:23:13;;;;;;;15.68;10.68;;;;;;;11.97;89.88;100473.34;10211249;28;20068;-75
2021/10/31 01:28:49;;;;;;;16.30;10.77;;;;;;;11.99;89.69;100479.28;10208763;28;20073;-72
2021/10/31 01:34:04;;;;;;;20.88;11.68;;;;;;;11.99;89.76;100487.50;10208097;28;20119;-74
2021/10/31 01:39:37;;;;;;;18.98;12.50;;;;;;;12.04;89.52;100515.84;10203986;28;20072;-73
2021/10/31 01:45:11;;;;;;;20.67;12.02;;;;;;;12.04;89.30;100521.34;10226749;28;20669;-73
2021/10/31 01:50:15;;;;;;;17.53;11.50;;;;;;;11.99;89.61;100530.53;10215529;28;20045;-74
2021/10/31 01:55:15;;;;;;;;;;;;;;;11.97;89.65;100533.63;10209718;28;20381;-74
2021/10/31 02:00:14;;;;;;;16.30;12.52;;;;;;;11.92;89.69;100531.06;10191010;28;19969;-74
2021/10/31 09:46:47;;;;;;;18.48;13.45;;;;;;;12.52;89.01;100657.94;10212263;28;20042;-74
2021/10/31 09:51:49;;;;;;;18.88;13.55;;;;;;;12.60;88.63;100640.63;10219407;28;20136;-73
2021/10/31 09:56:45;;;;;;;17.35;12.82;;;;;;;12.77;88.80;100630.66;10199522;28;20116;-73
2021/10/31 10:07:03;;;;;;;16.88;12.27;;;;;;;12.97;86.95;100629.03;10209058;28;20538;-74
2021/10/31 10:12:11;;;;;;;20.67;13.63;;;;;;;12.95;85.76;100643.09;10208455;28;20083;-75
2021/10/31 10:17:11;;;;;;;14.98;11.68;;;;;;;12.94;85.98;100654.41;10216773;28;20092;-74
2021/10/31 10:22:10;;;;;;;19.40;12.95;;;;;;;12.94;86.22;100641.50;10210670;28;20046;-73
2021/10/31 10:27:08;;;;;;;19.90;13.68;;;;;;;13.03;86.12;100627.69;10210074;28;20412;-74
2021/10/31 10:32:19;;;;;;;17.17;12.75;;;;;;;13.13;86.20;100632.75;10214835;28;20130;-76
2021/10/31 10:37:22;;;;;;;18.02;12.43;;;;;;;13.21;85.21;100634.63;10222147;28;20050;-74
2021/10/31 10:42:33;;;;;;;14.95;11.25;;;;;;;13.30;85.91;100631.84;10215515;28;20074;-73
2021/10/31 10:47:31;;;;;;;16.50;11.98;;;;;;;13.26;85.10;100626.19;10219315;28;20084;-73
2021/10/31 10:52:37;;;;;;;15.13;10.93;;;;;;;13.23;84.66;100626.88;10204400;28;20080;-73
2021/10/31 10:57:36;;;;;;;17.13;11.50;;;;;;;13.28;83.81;100616.84;10207516;28;20141;-75
2021/10/31 11:02:33;;;;;;;16.50;11.18;;;;;;;13.39;83.74;100602.34;10231600;28;20077;-74
2021/10/31 11:07:42;;;;;;;14.52;10.38;;;;;;;13.56;83.01;100575.84;10204732;28;20050;-74
2021/10/31 11:12:40;;;;;;;14.70;10.48;;;;;;;13.66;83.55;100567.94;10210140;28;20046;-73
2021/10/31 11:17:41;;;;;;;15.32;10.32;;;;;;;13.73;82.39;100572.06;10209482;28;20075;-74
2021/10/31 11:22:41;;;;;;;15.98;9.85;;;;;;;13.79;81.76;100566.00;10201353;28;20697;-72
2021/10/31 11:27:38;;;;;;;12.38;9.32;;;;;;;13.89;81.63;100564.75;10218231;28;20095;-73
2021/10/31 11:32:35;;;;;;;11.98;9.20;;;;;;;13.95;81.48;100562.53;10220529;28;20496;-73
2021/10/31 11:37:55;;;;;;;13.70;9.75;;;;;;;13.94;80.68;100555.47;10203085;28;20112;-72
2021/10/31 11:42:52;;;;;;;13.75;10.02;;;;;;;13.88;80.33;100535.66;10211874;28;20119;-72
2021/10/31 11:48:08;;;;;;;15.43;9.77;;;;;;;13.95;80.72;100519.41;10219667;28;20088;-72
2021/10/31 11:53:13;;;;;;;13.88;8.98;;;;;;;14.08;80.49;100512.72;10207528;28;20045;-72
2021/10/31 11:58:21;;;;;;;12.05;8.25;;;;;;;14.26;79.96;100504.22;10199267;28;20054;-72
2021/10/31 12:03:40;;;;;;;11.63;8.20;;;;;;;14.39;78.91;100483.78;10220059;28;20073;-74
2021/10/31 12:08:59;;;;;;;14.13;8.15;;;;;;;14.50;78.32;100495.88;10201423;28;20077;-72
2021/10/31 12:14:08;;;;;;;10.68;7.93;;;;;;;14.47;78.06;100491.06;10212671;28;20056;-73
2021/10/31 12:19:10;;;;;;;12.10;8.57;;;;;;;14.46;78.25;100483.97;10203472;28;20071;-73
2021/10/31 12:24:13;;;;;;;11.80;7.97;;;;;;;14.63;78.43;100473.84;10211197;28;20054;-74
2021/10/31 12:29:19;;;;;;;13.73;8.32;;;;;;;14.91;77.76;100463.59;10199500;28;20053;-73
2021/10/31 12:34:21;;;;;;;10.15;7.65;;;;;;;15.02;76.79;100449.31;10227992;28;20091;-72
2021/10/31 12:39:27;;;;;;;11.40;8.38;;;;;;;15.29;75.29;100437.44;10207476;28;20573;-74
2021/10/31 12:44:34;;;;;;;12.43;8.10;;;;;;;15.43;74.96;100430.63;10207684;28;20544;-73
2021/10/31 12:49:30;;;;;;;11.23;7.95;;;;;;;15.50;74.74;100426.13;10208316;28;20053;-73
2021/10/31 12:54:33;;;;;;;11.00;8.20;;;;;;;15.27;75.09;100412.19;10214126;28;20050;-73
2021/10/31 12:59:30;;;;;;;11.77;9.20;;;;;;;15.07;76.04;100402.25;10215432;28;20049;-74
2021/10/31 13:04:27;;;;;;;11.30;8.32;;;;;;;15.30;76.37;100405.97;10213741;28;20104;-74
2021/10/31 13:09:25;;;;;;;12.43;9.52;;;;;;;15.38;76.39;100398.66;10212116;28;20049;-73
2021/10/31 13:14:30;;;;;;;12.68;9.85;;;;;;;15.27;76.12;100390.16;10206513;28;20050;-72
2021/10/31 13:19:32;;;;;;;10.45;8.38;;;;;;;15.14;76.53;100383.94;10214852;28;20053;-74
2021/10/31 13:24:32;;;;;;;11.20;8.73;;;;;;;15.21;77.15;100368.75;10186799;28;20069;-73
2021/10/31 13:29:42;;;;;;;10.45;7.90;;;;;;;15.42;76.99;100368.44;10176521;28;20504;-73
2021/10/31 13:34:39;;;;;;;11.18;8.32;;;;;;;15.41;76.82;100353.06;10182200;28;20046;-74
2021/10/31 13:39:35;;;;;;;11.32;8.38;;;;;;;15.24;77.10;100352.28;10183949;28;20069;-74
2021/10/31 13:44:32;;;;;;;12.27;8.02;;;;;;;15.28;77.96;100336.66;10191469;28;20045;-73
2021/10/31 13:49:31;;;;;;;12.43;8.40;;;;;;;15.20;77.63;100337.66;10201750;28;20069;-73
2021/10/31 13:54:28;;;;;;;11.82;7.97;;;;;;;15.31;77.97;100322.16;10219450;28;20112;-74
2021/10/31 13:59:26;;;;;;;10.73;7.30;;;;;;;15.30;78.00;100312.31;10219462;28;20045;-74
2021/10/31 14:04:29;;;;;;;11.10;7.32;;;;;;;15.32;77.27;100298.19;10228705;28;20435;-74
2021/10/31 14:09:26;;;;;;;8.93;7.10;;;;;;;15.44;76.86;100289.00;10218007;28;20049;-73
2021/10/31 14:14:33;;;;;;;9.20;5.75;;;;;;;15.35;76.54;100275.44;10212231;28;20089;-75
2021/10/31 14:19:30;;;;;;;7.55;5.93;;;;;;;15.28;76.86;100264.25;10221182;28;20061;-72
2021/10/31 14:24:26;;;;;;;8.35;5.47;;;;;;;15.21;77.09;100264.91;10220983;28;20518;-73
2021/10/31 14:29:25;;;;;;;7.30;5.45;;;;;;;15.12;77.31;100256.03;10216445;28;20107;-74
2021/10/31 14:34:23;;;;;;;7.20;4.65;;;;;;;15.01;77.79;100255.78;10218407;28;20050;-73
2021/10/31 14:39:33;;;;;;;7.97;5.07;;;;;;;14.87;77.97;100249.97;10220192;28;20049;-76
2021/10/31 14:44:37;;;;;;;9.07;4.95;;;;;;;14.82;79.03;100244.75;10217634;28;20094;-74
2021/10/31 14:49:34;;;;;;;6.53;4.43;;;;;;;14.71;79.32;100247.22;10195081;28;20050;-74
2021/10/31 14:54:33;;;;;;;7.30;5.18;;;;;;;14.60;80.43;100229.69;10206562;28;20084;-73
2021/10/31 14:59:51;;;;;;;6.63;4.57;;;;;;;14.52;80.95;100229.47;10202901;28;20125;-74
2021/10/31 15:04:48;;;;;;;6.38;4.53;;;;;;;14.50;81.05;100220.81;10215384;28;21518;-74
2021/10/31 15:09:45;;;;;;;7.32;4.10;;;;;;;14.47;81.81;100216.00;10186830;28;20081;-74
2021/10/31 15:14:45;;;;;;;7.07;4.07;;;;;;;14.44;81.92;100205.72;10209950;28;20046;-73
2021/10/31 15:19:41;;;;;;;6.55;4.22;;;;;;;14.40;82.58;100202.06;10222949;28;20107;-73
2021/10/31 15:24:39;;;;;;;7.22;4.40;;;;;;;14.33;83.09;100199.16;10207298;28;20085;-73
2021/10/31 15:29:37;;;;;;;7.55;4.68;;;;;;;14.27;83.89;100192.31;10217688;28;20091;-73
2021/10/31 15:34:33;;;;;;;7.70;3.78;;;;;;;14.32;83.63;100176.38;10222873;28;20080;-72
2021/10/31 15:39:32;;;;;;;7.15;3.90;;;;;;;14.30;84.21;100172.38;10208192;28;20045;-74
2021/10/31 15:44:29;;;;;;;6.80;3.92;;;;;;;14.28;84.45;100158.19;10222113;28;20388;-74
2021/10/31 15:49:26;;;;;;;5.75;4.20;;;;;;;14.26;84.68;100149.50;10219773;28;20469;-76
2021/10/31 15:54:22;;;;;;;6.22;3.83;;;;;;;14.27;84.86;100134.56;10210062;28;20400;-73
2021/10/31 15:59:19;;;;;;;7.15;4.00;;;;;;;14.27;84.75;100131.81;10203236;28;20087;-72
2021/10/31 16:04:15;;;;;;;5.05;3.67;;;;;;;14.25;85.59;100121.19;10226250;28;20488;-73
2021/10/31 16:09:12;;;;;;;7.95;5.40;;;;;;;14.25;85.75;100123.13;10216863;28;20045;-74
2021/10/31 16:14:08;;;;;;;7.25;4.90;;;;;;;14.26;85.56;100119.25;10204464;28;20045;-73
2021/10/31 16:19:04;;;;;;;10.27;4.70;;;;;;;14.24;85.62;100113.28;10193725;28;20064;-73
2021/10/31 16:24:03;;;;;;;7.53;4.88;;;;;;;14.20;85.67;100101.41;10214249;28;20049;-74
2021/10/31 16:29:00;;;;;;;8.98;5.38;;;;;;;14.19;86.30;100084.13;10207373;28;20161;-73
2021/10/31 16:33:56;;;;;;;9.15;5.05;;;;;;;14.19;86.27;100078.63;10204936;28;20042;-72
2021/10/31 16:38:53;;;;;;;7.90;5.30;;;;;;;14.18;86.32;100073.47;10208078;28;20050;-74
2021/10/31 16:43:50;;;;;;;9.07;5.50;;;;;;;14.17;86.58;100063.66;10213071;28;20073;-73
2021/10/31 16:48:46;;;;;;;9.45;5.85;;;;;;;14.17;86.68;100058.94;10208369;28;20164;-73
2021/10/31 16:53:43;;;;;;;10.55;5.80;;;;;;;14.16;86.50;100037.31;10220210;28;20084;-74
2021/10/31 16:58:39;;;;;;;9.27;5.70;;;;;;;14.14;86.77;100043.16;10200905;28;20529;-73
2021/10/31 17:03:36;;;;;;;11.10;5.38;;;;;;;14.15;86.90;100038.47;10218466;28;20095;-74
2021/10/31 17:08:37;;;;;;;9.82;5.70;;;;;;;14.14;86.59;100037.69;10194562;28;20038;-72
2021/10/31 17:13:33;;;;;;;8.23;5.45;;;;;;;14.13;86.45;100029.78;10194764;28;20053;-72
2021/10/31 17:18:30;;;;;;;10.07;6.03;;;;;;;14.09;86.63;100019.50;10221945;28;20770;-74
2021/10/31 17:23:26;;;;;;;7.90;5.38;;;;;;;14.09;86.80;100003.00;10219557;28;20061;-73
2021/10/31 17:28:23;;;;;;;9.65;5.45;;;;;;;14.05;87.11;99991.13;10208980;28;20487;-73
2021/10/31 17:33:20;;;;;;;9.80;6.20;;;;;;;14.06;86.60;99981.75;10224360;28;20046;-73
2021/10/31 17:38:16;;;;;;;9.85;5.65;;;;;;;14.02;86.68;99969.88;10212676;28;20523;-73
2021/10/31 17:43:12;;;;;;;8.23;5.35;;;;;;;14.03;87.23;99965.97;10224022;28;20046;-73
2021/10/31 17:48:09;;;;;;;9.68;5.57;;;;;;;14.04;86.87;99951.06;10218990;28;20046;-75
2021/10/31 17:53:09;;;;;;;10.43;5.28;;;;;;;14.05;86.62;99947.16;10207085;28;20074;-74
2021/10/31 17:58:05;;;;;;;8.40;5.50;;;;;;;14.09;86.52;99936.25;10201562;28;20674;-73
2021/10/31 18:03:03;;;;;;;8.57;5.22;;;;;;;14.12;86.23;99923.72;10209320;28;20080;-73
2021/10/31 18:08:00;;;;;;;9.32;5.38;;;;;;;14.15;85.95;99932.03;10220913;28;20045;-73
2021/10/31 18:12:57;;;;;;;7.93;4.78;;;;;;;14.17;86.03;99912.44;10222470;28;20068;-72
2021/10/31 18:17:53;;;;;;;7.55;5.35;;;;;;;14.20;85.99;99906.22;10215829;28;20084;-72
2021/10/31 18:22:56;;;;;;;7.68;5.53;;;;;;;14.19;86.54;99896.38;10222522;28;20075;-73
2021/10/31 18:27:56;;;;;;;8.88;5.90;;;;;;;14.19;86.59;99886.19;10224363;28;20042;-73
2021/10/31 18:32:53;;;;;;;8.55;5.40;;;;;;;14.20;86.44;99875.97;10219615;28;20376;-74
2021/10/31 18:37:49;;;;;;;12.10;6.15;;;;;;;14.23;85.79;99869.78;10213415;28;20065;-72
2021/10/31 18:42:47;;;;;;;9.15;5.85;;;;;;;14.25;85.65;99862.75;10212424;28;20467;-73
2021/10/31 18:47:44;;;;;;;11.40;6.28;;;;;;;14.25;85.38;99845.44;10211441;28;20057;-74
2021/10/31 18:52:41;;;;;;;11.10;6.68;;;;;;;14.27;84.73;99837.63;10212914;28;20084;-72
2021/10/31 18:57:38;;;;;;;8.38;5.97;;;;;;;14.26;84.43;99825.03;10213085;28;20124;-72
2021/10/31 19:02:36;;;;;;;10.95;6.28;;;;;;;14.27;84.11;99808.19;10213443;28;20046;-72
2021/10/31 19:07:33;;;;;;;9.93;6.75;;;;;;;14.28;83.81;99806.22;10218839;28;20459;-71
2021/10/31 19:12:30;;;;;;;9.05;5.90;;;;;;;14.26;83.79;99779.09;10203466;28;20455;-72
2021/10/31 19:17:27;;;;;;;9.80;6.28;;;;;;;14.26;83.40;99772.81;10204483;28;20084;-73
2021/10/31 19:22:24;;;;;;;9.65;6.63;;;;;;;14.26;82.89;99765.34;10207143;28;20108;-72
2021/10/31 19:27:20;;;;;;;9.00;6.88;;;;;;;14.27;82.81;99766.13;10196129;28;20108;-72
2021/10/31 19:32:17;;;;;;;11.23;6.75;;;;;;;14.28;82.27;99751.25;10207332;28;20072;-72
2021/10/31 19:37:15;;;;;;;13.48;6.72;;;;;;;14.28;82.24;99729.25;10210199;28;20100;-72
2021/10/31 19:42:11;;;;;;;12.23;6.82;;;;;;;14.28;82.00;99734.75;10202789;28;20045;-71
2021/10/31 19:47:08;;;;;;;10.57;6.70;;;;;;;14.29;81.86;99719.81;10203541;28;20108;-72
2021/10/31 19:52:05;;;;;;;11.43;6.90;;;;;;;14.27;81.74;99706.47;10213803;28;20099;-71
2021/10/31 19:57:03;;;;;;;9.48;6.45;;;;;;;14.27;81.47;99700.16;10200259;28;20038;-72
2021/10/31 20:02:00;;;;;;;14.80;7.85;;;;;;;14.28;81.04;99685.25;10217287;28;20168;-71
2021/10/31 20:06:56;;;;;;;9.82;7.40;;;;;;;14.30;81.08;99677.44;10212774;28;20416;-72
2021/10/31 20:11:53;;;;;;;10.90;6.93;;;;;;;14.27;81.00;99672.66;10213750;28;20046;-71
2021/10/31 20:16:52;;;;;;;8.73;6.90;;;;;;;14.31;80.51;99673.50;10203211;28;20073;-72
2021/10/31 20:21:51;;;;;;;9.60;6.65;;;;;;;14.31;79.97;99668.00;10204725;28;20050;-71
2021/10/31 20:26:49;;;;;;;11.55;7.15;;;;;;;14.30;79.70;99655.44;10199431;28;20088;-72
2021/10/31 20:31:46;;;;;;;10.60;7.07;;;;;;;14.30;79.83;99650.72;10206833;28;20129;-71
2021/10/31 20:36:42;;;;;;;12.35;7.47;;;;;;;14.28;79.61;99641.25;10199163;28;20065;-72
2021/10/31 20:41:39;;;;;;;11.00;7.68;;;;;;;14.23;79.51;99638.84;10203602;28;20049;-71
2021/10/31 20:46:36;;;;;;;10.70;8.00;;;;;;;14.16;79.59;99616.72;10205901;28;20045;-71
2021/10/31 20:51:33;;;;;;;12.60;8.07;;;;;;;14.13;79.74;99612.72;10197251;28;20041;-72
2021/10/31 20:56:36;;;;;;;10.50;7.68;;;;;;;14.08;79.23;99600.09;10205516;28;20125;-71
2021/10/31 21:01:33;;;;;;;11.57;7.90;;;;;;;14.06;79.16;99596.13;10204922;28;20540;-71
2021/10/31 21:06:30;;;;;;;10.70;7.90;;;;;;;14.06;78.73;99588.72;10214348;28;20121;-71
2021/10/31 21:11:27;;;;;;;12.82;7.88;;;;;;;14.06;78.54;99580.47;10213155;28;20046;-72
2021/10/31 21:16:25;;;;;;;10.25;7.43;;;;;;;14.08;78.30;99571.81;10197084;28;20076;-71
2021/10/31 21:21:24;;;;;;;13.35;7.47;;;;;;;14.08;78.10;99572.63;10201732;28;20048;-72
2021/10/31 21:26:34;;;;;;;10.50;7.80;;;;;;;14.11;78.08;99571.09;10190744;28;20046;-73
2021/10/31 21:31:31;;;;;;;11.82;8.00;;;;;;;14.12;77.41;99561.69;10196984;28;20919;-71
2021/10/31 21:36:29;;;;;;;20.10;7.75;;;;;;;14.15;77.14;99549.16;10203622;28;20045;-72
2021/10/31 21:41:29;;;;;;;10.40;7.88;;;;;;;14.17;76.53;99560.56;10208270;28;20050;-71
2021/10/31 21:46:26;;;;;;;13.30;8.13;;;;;;;14.17;75.88;99557.81;10198683;28;20662;-74
2021/10/31 21:51:23;;;;;;;13.20;7.60;;;;;;;14.19;75.73;99556.28;10191331;28;20038;-72
2021/10/31 21:56:19;;;;;;;11.15;7.35;;;;;;;14.21;75.10;99548.47;10189990;28;20050;-73
2021/10/31 22:01:16;;;;;;;10.13;7.28;;;;;;;14.24;74.24;99530.44;10188029;28;20046;-71
2021/10/31 22:06:13;;;;;;;11.00;7.55;;;;;;;14.26;73.61;99528.91;10211462;28;20060;-72
2021/10/31 22:11:12;;;;;;;14.57;7.82;;;;;;;14.27;73.28;99535.19;10213572;28;20562;-72
2021/10/31 22:16:09;;;;;;;11.43;8.07;;;;;;;14.27;73.28;99541.50;10218133;28;20477;-72
2021/10/31 22:21:05;;;;;;;10.82;7.88;;;;;;;14.27;72.73;99546.19;10221384;28;20042;-73
2021/10/31 22:26:02;;;;;;;11.23;8.65;;;;;;;14.28;72.39;99536.78;10219497;28;20065;-73
2021/10/31 22:31:01;;;;;;;10.85;7.90;;;;;;;14.27;72.32;99535.19;10210878;28;20105;-73
2021/10/31 22:35:58;;;;;;;10.48;7.57;;;;;;;14.27;72.06;99540.69;10210495;28;20048;-73
2021/10/31 22:40:55;;;;;;;10.70;7.63;;;;;;;14.26;71.99;99537.16;10214834;28;20459;-73
2021/10/31 22:45:51;;;;;;;11.48;7.50;;;;;;;14.25;72.15;99537.50;10209529;28;20456;-73
2021/10/31 22:50:48;;;;;;;10.43;7.55;;;;;;;14.24;72.01;99547.72;10211021;28;20120;-73
2021/10/31 22:55:45;;;;;;;10.55;7.07;;;;;;;14.25;72.25;99556.75;10223976;28;20229;-73
2021/10/31 23:00:48;;;;;;;9.75;6.70;;;;;;;14.27;71.82;99558.00;10212417;28;20133;-73
2021/10/31 23:05:47;;;;;;;10.98;7.18;;;;;;;14.30;72.48;99583.94;10198226;28;20077;-73
2021/10/31 23:10:44;;;;;;;10.23;6.80;;;;;;;14.30;73.02;99578.44;10217002;28;20111;-72
2021/10/31 23:15:40;;;;;;;10.25;6.25;;;;;;;14.22;74.56;99571.25;10218962;28;20123;-71
2021/10/31 23:20:37;;;;;;;8.32;6.28;;;;;;;14.16;76.02;99561.75;10213930;28;20045;-74
2021/10/31 23:25:34;;;;;;;8.90;4.97;;;;;;;14.15;76.11;99569.19;10203611;28;20133;-73
2021/10/31 23:30:30;;;;;;;6.40;4.07;;;;;;;14.17;77.28;99575.09;10216181;28;20072;-73
2021/10/31 23:35:28;;;;;;;5.93;3.55;;;;;;;14.22;78.90;99593.25;10221210;28;20231;-73
2021/10/31 23:40:24;;;;;;;4.75;2.70;;;;;;;14.25;78.92;99589.75;10209206;28;20045;-73
2021/10/31 23:45:23;;;;;;;6.68;2.65;;;;;;;14.32;79.49;99603.63;10217324;28;20053;-73
2021/10/31 23:50:19;;;;;;;3.95;2.33;;;;;;;14.38;79.38;99602.13;10215668;28;20470;-73
2021/10/31 23:55:16;;;;;;;4.68;2.53;;;;;;;14.47;79.41;99597.16;10211654;28;20049;-73
